Thorco Crystal — V2BP9 — position and weather

sailwx.info

Track history (hours):
 
Tides and Currents Weather Stations Pressure Air Temp Water Temp Dewpoint Dewpoint Depression Visibility Wind Speed Wind Dir Waves Ship Positions

Thorco Crystal

Last reported at 2015-Jul-27 00:29 UTC. Time now 2015-Jul-29 02:42 UTC.
Position N 24°59' E 055°04'.

Length 145 m; draft 7.1 m.

Type: Ship. MMSI: 304736000.

Date/timePositionNaut miles runAvg speedWind from/ knotsBaromVisibWave heightAir tempDewpointWater temp
2015-Jul-27 00:29N 24°59' E 055°04'0 0.0
2015-Jul-26 23:34N 24°59' E 055°04'0 0.0
2015-Jul-26 22:32N 24°59' E 055°04'0 0.0
2015-Jul-26 21:33N 24°59' E 055°04'0 0.0
2015-Jul-26 20:34N 24°59' E 055°04'0 0.0
2015-Jul-26 19:33N 24°59' E 055°04'0 0.0
2015-Jul-26 18:34N 24°59' E 055°04'0 0.0
2015-Jul-26 17:34N 24°59' E 055°04'0 0.0
2015-Jul-26 16:33N 24°59' E 055°04'0 0.0
2015-Jul-26 15:33N 24°59' E 055°04'0 0.0
2015-Jul-26 14:33N 24°59' E 055°04'51 5.0
2015-Jul-26 04:32N 25°47' E 054°45'1313.0
2015-Jul-26 03:33N 25°57' E 054°36'1610.8
2015-Jul-26 02:06N 25°57' E 054°19'712.7
2015-Jul-26 01:31N 25°56' E 054°11'1313.0
2015-Jul-26 00:30N 25°54' E 053°57'1413.4
2015-Jul-25 23:28N 25°52' E 053°41'1413.5
2015-Jul-25 22:27N 25°50' E 053°26'1213.6
2015-Jul-25 21:33N 25°48' E 053°13'1413.2
2015-Jul-25 20:29N 25°47' E 052°57'2912.9
2015-Jul-25 18:14N 25°43' E 052°25'2212.3
2015-Jul-25 16:27N 25°29' E 052°07'1112.3
2015-Jul-25 15:33N 25°22' E 051°57'  
Track history (hours):
 
Tides and Currents Weather Stations Pressure Air Temp Water Temp Dewpoint Dewpoint Depression Visibility Wind Speed Wind Dir Waves Ship Positions

Thorco Crystal

Last reported at 2015-Jul-27 00:29 UTC. Time now 2015-Jul-29 02:42 UTC.
Position N 24°59' E 055°04'.

Length 145 m; draft 7.1 m.

Type: Ship. MMSI: 304736000.

Date/timePositionNaut miles runAvg speedWind from/ knotsBaromVisibWave heightAir tempDewpointWater temp
2015-Jul-27 00:29N 24°59' E 055°04'0 0.0
2015-Jul-26 23:34N 24°59' E 055°04'0 0.0
2015-Jul-26 22:32N 24°59' E 055°04'0 0.0
2015-Jul-26 21:33N 24°59' E 055°04'0 0.0
2015-Jul-26 20:34N 24°59' E 055°04'0 0.0
2015-Jul-26 19:33N 24°59' E 055°04'0 0.0
2015-Jul-26 18:34N 24°59' E 055°04'0 0.0
2015-Jul-26 17:34N 24°59' E 055°04'0 0.0
2015-Jul-26 16:33N 24°59' E 055°04'0 0.0
2015-Jul-26 15:33N 24°59' E 055°04'0 0.0
2015-Jul-26 14:33N 24°59' E 055°04'51 5.0
2015-Jul-26 04:32N 25°47' E 054°45'1313.0
2015-Jul-26 03:33N 25°57' E 054°36'1610.8
2015-Jul-26 02:06N 25°57' E 054°19'712.7
2015-Jul-26 01:31N 25°56' E 054°11'1313.0
2015-Jul-26 00:30N 25°54' E 053°57'1413.4
2015-Jul-25 23:28N 25°52' E 053°41'1413.5
2015-Jul-25 22:27N 25°50' E 053°26'1213.6
2015-Jul-25 21:33N 25°48' E 053°13'1413.2
2015-Jul-25 20:29N 25°47' E 052°57'2912.9
2015-Jul-25 18:14N 25°43' E 052°25'2212.3
2015-Jul-25 16:27N 25°29' E 052°07'1112.3
2015-Jul-25 15:33N 25°22' E 051°57'  

Dump ship's entire track history